sensor_id;sensor_type;location;lat;lon;timestamp;temperature;humidity
56256;DHT22;57229;51.432;-2.598;2022-11-20T00:00:50;12.80;99.90
56256;DHT22;57229;51.432;-2.598;2022-11-20T00:03:16;12.80;99.90
56256;DHT22;57229;51.432;-2.598;2022-11-20T00:05:43;12.80;99.90
56256;DHT22;57229;51.432;-2.598;2022-11-20T00:08:09;12.80;99.90
56256;DHT22;57229;51.432;-2.598;2022-11-20T00:10:37;12.80;99.90
56256;DHT22;57229;51.432;-2.598;2022-11-20T00:13:03;12.80;99.90
56256;DHT22;57229;51.432;-2.598;2022-11-20T00:15:29;12.80;99.90
56256;DHT22;57229;51.432;-2.598;2022-11-20T00:17:56;12.80;99.90
56256;DHT22;57229;51.432;-2.598;2022-11-20T00:20:22;12.80;99.90
56256;DHT22;57229;51.432;-2.598;2022-11-20T00:22:54;12.70;99.90
56256;DHT22;57229;51.432;-2.598;2022-11-20T00:25:19;12.70;99.90
56256;DHT22;57229;51.432;-2.598;2022-11-20T00:27:45;12.70;99.90
56256;DHT22;57229;51.432;-2.598;2022-11-20T00:30:14;12.70;99.90
56256;DHT22;57229;51.432;-2.598;2022-11-20T00:32:40;12.80;99.90
56256;DHT22;57229;51.432;-2.598;2022-11-20T00:35:06;12.70;99.90
56256;DHT22;57229;51.432;-2.598;2022-11-20T00:37:32;12.70;99.90
56256;DHT22;57229;51.432;-2.598;2022-11-20T00:39:59;12.70;99.90
56256;DHT22;57229;51.432;-2.598;2022-11-20T00:42:26;12.70;99.90
56256;DHT22;57229;51.432;-2.598;2022-11-20T00:44:52;12.70;99.90
56256;DHT22;57229;51.432;-2.598;2022-11-20T00:47:17;12.70;99.90
56256;DHT22;57229;51.432;-2.598;2022-11-20T00:49:43;12.70;99.90
56256;DHT22;57229;51.432;-2.598;2022-11-20T00:52:09;12.70;99.90
56256;DHT22;57229;51.432;-2.598;2022-11-20T00:54:35;12.60;99.90
56256;DHT22;57229;51.432;-2.598;2022-11-20T00:57:01;12.60;99.90
56256;DHT22;57229;51.432;-2.598;2022-11-20T00:59:27;12.70;99.90
56256;DHT22;57229;51.432;-2.598;2022-11-20T01:01:53;12.70;99.90
56256;DHT22;57229;51.432;-2.598;2022-11-20T01:04:18;12.70;99.90
56256;DHT22;57229;51.432;-2.598;2022-11-20T01:06:44;12.70;99.90
56256;DHT22;57229;51.432;-2.598;2022-11-20T01:09:14;13.10;99.90
56256;DHT22;57229;51.432;-2.598;2022-11-20T01:11:42;12.60;99.90
56256;DHT22;57229;51.432;-2.598;2022-11-20T01:14:13;12.60;99.90
56256;DHT22;57229;51.432;-2.598;2022-11-20T01:16:42;11.70;99.90
56256;DHT22;57229;51.432;-2.598;2022-11-20T01:19:20;12.60;99.90
56256;DHT22;57229;51.432;-2.598;2022-11-20T01:21:50;12.70;99.90
56256;DHT22;57229;51.432;-2.598;2022-11-20T01:24:18;12.70;99.90
56256;DHT22;57229;51.432;-2.598;2022-11-20T01:26:46;12.70;99.90
56256;DHT22;57229;51.432;-2.598;2022-11-20T01:29:18;12.70;99.90
56256;DHT22;57229;51.432;-2.598;2022-11-20T01:31:44;12.70;99.90
56256;DHT22;57229;51.432;-2.598;2022-11-20T01:34:13;12.70;99.90
56256;DHT22;57229;51.432;-2.598;2022-11-20T01:36:46;12.60;99.90
56256;DHT22;57229;51.432;-2.598;2022-11-20T01:39:21;12.70;99.90
56256;DHT22;57229;51.432;-2.598;2022-11-20T01:41:48;12.70;99.90
56256;DHT22;57229;51.432;-2.598;2022-11-20T01:44:54;12.70;99.90
56256;DHT22;57229;51.432;-2.598;2022-11-20T01:49:59;12.60;99.90
56256;DHT22;57229;51.432;-2.598;2022-11-20T01:52:41;12.70;99.90
56256;DHT22;57229;51.432;-2.598;2022-11-20T01:55:14;12.70;99.90
56256;DHT22;57229;51.432;-2.598;2022-11-20T01:57:41;12.60;99.90
56256;DHT22;57229;51.432;-2.598;2022-11-20T02:00:10;12.60;99.90
56256;DHT22;57229;51.432;-2.598;2022-11-20T02:02:38;12.60;99.90
56256;DHT22;57229;51.432;-2.598;2022-11-20T02:05:19;12.60;99.90
56256;DHT22;57229;51.432;-2.598;2022-11-20T02:07:48;12.60;99.90
56256;DHT22;57229;51.432;-2.598;2022-11-20T02:10:15;12.60;99.90
56256;DHT22;57229;51.432;-2.598;2022-11-20T02:12:45;12.60;99.90
56256;DHT22;57229;51.432;-2.598;2022-11-20T02:15:31;12.60;99.90
56256;DHT22;57229;51.432;-2.598;2022-11-20T02:17:58;12.60;99.90
56256;DHT22;57229;51.432;-2.598;2022-11-20T02:20:24;12.60;99.90
56256;DHT22;57229;51.432;-2.598;2022-11-20T02:23:03;12.60;99.90
56256;DHT22;57229;51.432;-2.598;2022-11-20T02:25:30;12.60;99.90
56256;DHT22;57229;51.432;-2.598;2022-11-20T02:27:57;12.60;99.90
56256;DHT22;57229;51.432;-2.598;2022-11-20T02:30:23;12.60;99.90
56256;DHT22;57229;51.432;-2.598;2022-11-20T02:32:50;12.60;99.90
56256;DHT22;57229;51.432;-2.598;2022-11-20T02:37:51;12.60;99.90
56256;DHT22;57229;51.432;-2.598;2022-11-20T02:40:18;12.60;99.90
56256;DHT22;57229;51.432;-2.598;2022-11-20T02:42:44;12.60;99.90
56256;DHT22;57229;51.432;-2.598;2022-11-20T02:45:10;12.60;99.90
56256;DHT22;57229;51.432;-2.598;2022-11-20T02:47:36;12.60;99.90
56256;DHT22;57229;51.432;-2.598;2022-11-20T02:50:03;12.60;99.90
56256;DHT22;57229;51.432;-2.598;2022-11-20T02:52:30;12.60;99.90
56256;DHT22;57229;51.432;-2.598;2022-11-20T02:54:55;12.60;99.90
56256;DHT22;57229;51.432;-2.598;2022-11-20T02:57:21;12.60;99.90
56256;DHT22;57229;51.432;-2.598;2022-11-20T02:59:54;12.60;99.90
56256;DHT22;57229;51.432;-2.598;2022-11-20T03:02:21;12.60;99.90
56256;DHT22;57229;51.432;-2.598;2022-11-20T03:04:53;12.60;99.90
56256;DHT22;57229;51.432;-2.598;2022-11-20T03:07:40;12.60;99.90
56256;DHT22;57229;51.432;-2.598;2022-11-20T03:10:06;12.60;99.90
56256;DHT22;57229;51.432;-2.598;2022-11-20T03:12:32;12.60;99.90
56256;DHT22;57229;51.432;-2.598;2022-11-20T03:14:58;12.60;99.90
56256;DHT22;57229;51.432;-2.598;2022-11-20T03:17:24;12.70;99.90
56256;DHT22;57229;51.432;-2.598;2022-11-20T03:19:50;12.70;99.90
56256;DHT22;57229;51.432;-2.598;2022-11-20T03:22:16;12.70;99.90
56256;DHT22;57229;51.432;-2.598;2022-11-20T03:24:43;12.80;99.90
56256;DHT22;57229;51.432;-2.598;2022-11-20T03:27:17;12.70;99.90
56256;DHT22;57229;51.432;-2.598;2022-11-20T03:29:42;12.70;99.90
56256;DHT22;57229;51.432;-2.598;2022-11-20T03:32:09;12.70;99.90
56256;DHT22;57229;51.432;-2.598;2022-11-20T03:34:37;12.70;99.90
56256;DHT22;57229;51.432;-2.598;2022-11-20T03:37:06;12.70;99.90
56256;DHT22;57229;51.432;-2.598;2022-11-20T03:39:32;12.80;99.90
56256;DHT22;57229;51.432;-2.598;2022-11-20T03:41:58;12.80;99.90
56256;DHT22;57229;51.432;-2.598;2022-11-20T03:44:23;12.80;99.90
56256;DHT22;57229;51.432;-2.598;2022-11-20T03:46:49;12.80;99.90
56256;DHT22;57229;51.432;-2.598;2022-11-20T03:49:16;12.80;99.90
56256;DHT22;57229;51.432;-2.598;2022-11-20T03:51:41;12.80;99.90
56256;DHT22;57229;51.432;-2.598;2022-11-20T03:54:08;12.80;99.90
56256;DHT22;57229;51.432;-2.598;2022-11-20T03:56:38;12.80;99.90
56256;DHT22;57229;51.432;-2.598;2022-11-20T03:59:05;12.80;99.90
56256;DHT22;57229;51.432;-2.598;2022-11-20T04:01:34;12.80;99.90
56256;DHT22;57229;51.432;-2.598;2022-11-20T04:04:00;12.70;99.90
56256;DHT22;57229;51.432;-2.598;2022-11-20T04:06:29;12.70;99.90
56256;DHT22;57229;51.432;-2.598;2022-11-20T04:08:56;12.80;99.90
56256;DHT22;57229;51.432;-2.598;2022-11-20T04:11:29;12.80;99.90
56256;DHT22;57229;51.432;-2.598;2022-11-20T04:14:00;12.80;99.90
56256;DHT22;57229;51.432;-2.598;2022-11-20T04:16:31;12.70;99.90
56256;DHT22;57229;51.432;-2.598;2022-11-20T04:18:59;12.80;99.90
56256;DHT22;57229;51.432;-2.598;2022-11-20T04:21:26;12.80;99.90
56256;DHT22;57229;51.432;-2.598;2022-11-20T04:23:53;12.70;99.90
56256;DHT22;57229;51.432;-2.598;2022-11-20T04:26:21;12.70;99.90
56256;DHT22;57229;51.432;-2.598;2022-11-20T04:28:48;12.70;99.90
56256;DHT22;57229;51.432;-2.598;2022-11-20T04:31:16;12.70;99.90
56256;DHT22;57229;51.432;-2.598;2022-11-20T04:33:43;12.70;99.90
56256;DHT22;57229;51.432;-2.598;2022-11-20T04:36:17;12.80;99.90
56256;DHT22;57229;51.432;-2.598;2022-11-20T04:38:44;12.70;99.90
56256;DHT22;57229;51.432;-2.598;2022-11-20T04:41:42;12.80;99.90
56256;DHT22;57229;51.432;-2.598;2022-11-20T04:44:08;12.70;99.90
56256;DHT22;57229;51.432;-2.598;2022-11-20T04:46:39;12.70;99.90
56256;DHT22;57229;51.432;-2.598;2022-11-20T04:49:25;12.70;99.90
56256;DHT22;57229;51.432;-2.598;2022-11-20T04:51:53;12.80;99.90
56256;DHT22;57229;51.432;-2.598;2022-11-20T04:54:19;12.70;99.90
56256;DHT22;57229;51.432;-2.598;2022-11-20T04:56:47;12.70;99.90
56256;DHT22;57229;51.432;-2.598;2022-11-20T04:59:15;12.70;99.90
56256;DHT22;57229;51.432;-2.598;2022-11-20T05:01:41;12.70;99.90
56256;DHT22;57229;51.432;-2.598;2022-11-20T05:04:16;12.70;99.90
56256;DHT22;57229;51.432;-2.598;2022-11-20T05:06:45;12.70;99.90
56256;DHT22;57229;51.432;-2.598;2022-11-20T05:09:12;12.70;99.90
56256;DHT22;57229;51.432;-2.598;2022-11-20T05:11:40;12.70;99.90
56256;DHT22;57229;51.432;-2.598;2022-11-20T05:14:17;12.70;99.90
56256;DHT22;57229;51.432;-2.598;2022-11-20T05:16:46;12.70;99.90
56256;DHT22;57229;51.432;-2.598;2022-11-20T05:19:12;12.70;99.90
56256;DHT22;57229;51.432;-2.598;2022-11-20T05:21:41;12.70;99.90
56256;DHT22;57229;51.432;-2.598;2022-11-20T05:24:06;12.70;99.90
56256;DHT22;57229;51.432;-2.598;2022-11-20T05:26:32;12.70;99.90
56256;DHT22;57229;51.432;-2.598;2022-11-20T05:28:58;12.70;99.90
56256;DHT22;57229;51.432;-2.598;2022-11-20T05:31:24;12.70;99.90
56256;DHT22;57229;51.432;-2.598;2022-11-20T05:33:50;12.70;99.90
56256;DHT22;57229;51.432;-2.598;2022-11-20T05:36:17;12.60;99.90
56256;DHT22;57229;51.432;-2.598;2022-11-20T05:38:43;12.60;99.90
56256;DHT22;57229;51.432;-2.598;2022-11-20T05:41:14;12.70;99.90
56256;DHT22;57229;51.432;-2.598;2022-11-20T05:43:42;12.60;99.90
56256;DHT22;57229;51.432;-2.598;2022-11-20T05:46:10;12.60;99.90
56256;DHT22;57229;51.432;-2.598;2022-11-20T05:48:37;12.60;99.90
56256;DHT22;57229;51.432;-2.598;2022-11-20T05:51:04;12.60;99.90
56256;DHT22;57229;51.432;-2.598;2022-11-20T05:53:32;12.60;99.90
56256;DHT22;57229;51.432;-2.598;2022-11-20T05:56:08;12.60;99.90
56256;DHT22;57229;51.432;-2.598;2022-11-20T05:58:35;12.60;99.90
56256;DHT22;57229;51.432;-2.598;2022-11-20T06:01:13;12.60;99.90
56256;DHT22;57229;51.432;-2.598;2022-11-20T06:03:39;12.50;99.90
56256;DHT22;57229;51.432;-2.598;2022-11-20T06:06:06;12.60;99.90
56256;DHT22;57229;51.432;-2.598;2022-11-20T06:08:32;12.60;99.90
56256;DHT22;57229;51.432;-2.598;2022-11-20T06:10:58;12.60;99.90
56256;DHT22;57229;51.432;-2.598;2022-11-20T06:13:27;12.60;99.90
56256;DHT22;57229;51.432;-2.598;2022-11-20T06:15:53;12.50;99.90
56256;DHT22;57229;51.432;-2.598;2022-11-20T06:18:19;12.50;99.90
56256;DHT22;57229;51.432;-2.598;2022-11-20T06:20:46;12.50;99.90
56256;DHT22;57229;51.432;-2.598;2022-11-20T06:23:12;12.50;99.90
56256;DHT22;57229;51.432;-2.598;2022-11-20T06:25:41;12.50;99.90
56256;DHT22;57229;51.432;-2.598;2022-11-20T06:28:08;12.50;99.90
56256;DHT22;57229;51.432;-2.598;2022-11-20T06:30:35;12.50;99.90
56256;DHT22;57229;51.432;-2.598;2022-11-20T06:33:01;12.50;99.90
56256;DHT22;57229;51.432;-2.598;2022-11-20T06:35:27;12.50;99.90
56256;DHT22;57229;51.432;-2.598;2022-11-20T06:37:55;12.50;99.90
56256;DHT22;57229;51.432;-2.598;2022-11-20T06:40:21;12.40;99.90
56256;DHT22;57229;51.432;-2.598;2022-11-20T06:42:53;12.40;99.90
56256;DHT22;57229;51.432;-2.598;2022-11-20T06:45:19;12.50;99.90
56256;DHT22;57229;51.432;-2.598;2022-11-20T06:47:45;12.50;99.90
56256;DHT22;57229;51.432;-2.598;2022-11-20T06:50:15;12.40;99.90
56256;DHT22;57229;51.432;-2.598;2022-11-20T06:52:42;12.40;99.90
56256;DHT22;57229;51.432;-2.598;2022-11-20T06:55:09;12.40;99.90
56256;DHT22;57229;51.432;-2.598;2022-11-20T06:57:35;12.40;99.90
56256;DHT22;57229;51.432;-2.598;2022-11-20T07:00:01;12.40;99.90
56256;DHT22;57229;51.432;-2.598;2022-11-20T07:02:27;12.40;99.90
56256;DHT22;57229;51.432;-2.598;2022-11-20T07:04:52;12.40;99.90
56256;DHT22;57229;51.432;-2.598;2022-11-20T07:07:18;12.40;99.90
56256;DHT22;57229;51.432;-2.598;2022-11-20T07:09:45;12.40;99.90
56256;DHT22;57229;51.432;-2.598;2022-11-20T07:12:11;12.40;99.90
56256;DHT22;57229;51.432;-2.598;2022-11-20T07:14:36;12.40;99.90
56256;DHT22;57229;51.432;-2.598;2022-11-20T07:17:02;12.40;99.90
56256;DHT22;57229;51.432;-2.598;2022-11-20T07:19:28;12.40;99.90
56256;DHT22;57229;51.432;-2.598;2022-11-20T07:21:53;12.40;99.90
56256;DHT22;57229;51.432;-2.598;2022-11-20T07:24:19;12.30;99.90
56256;DHT22;57229;51.432;-2.598;2022-11-20T07:26:46;12.30;99.90
56256;DHT22;57229;51.432;-2.598;2022-11-20T07:29:13;12.30;99.90
56256;DHT22;57229;51.432;-2.598;2022-11-20T07:31:39;12.30;99.90
56256;DHT22;57229;51.432;-2.598;2022-11-20T07:34:04;12.30;99.90
56256;DHT22;57229;51.432;-2.598;2022-11-20T07:36:30;12.30;99.90
56256;DHT22;57229;51.432;-2.598;2022-11-20T07:38:56;12.30;99.90
56256;DHT22;57229;51.432;-2.598;2022-11-20T07:41:21;12.30;99.90
56256;DHT22;57229;51.432;-2.598;2022-11-20T07:43:47;12.30;99.90
56256;DHT22;57229;51.432;-2.598;2022-11-20T07:46:12;12.30;99.90
56256;DHT22;57229;51.432;-2.598;2022-11-20T07:48:38;12.30;99.90
56256;DHT22;57229;51.432;-2.598;2022-11-20T07:51:04;12.30;99.90
56256;DHT22;57229;51.432;-2.598;2022-11-20T07:53:30;12.30;99.90
56256;DHT22;57229;51.432;-2.598;2022-11-20T07:55:59;12.30;99.90
56256;DHT22;57229;51.432;-2.598;2022-11-20T07:58:26;12.30;99.90
56256;DHT22;57229;51.432;-2.598;2022-11-20T08:00:53;12.30;99.90
56256;DHT22;57229;51.432;-2.598;2022-11-20T08:03:19;12.30;99.90
56256;DHT22;57229;51.432;-2.598;2022-11-20T08:05:45;12.30;99.90
56256;DHT22;57229;51.432;-2.598;2022-11-20T08:08:11;12.30;99.90
56256;DHT22;57229;51.432;-2.598;2022-11-20T08:10:36;12.30;99.90
56256;DHT22;57229;51.432;-2.598;2022-11-20T08:13:02;12.30;99.90
56256;DHT22;57229;51.432;-2.598;2022-11-20T08:15:50;12.30;99.90
56256;DHT22;57229;51.432;-2.598;2022-11-20T08:18:16;12.30;99.90
56256;DHT22;57229;51.432;-2.598;2022-11-20T08:20:43;12.30;99.90
56256;DHT22;57229;51.432;-2.598;2022-11-20T08:23:08;12.30;99.90
56256;DHT22;57229;51.432;-2.598;2022-11-20T08:25:35;12.40;99.90
56256;DHT22;57229;51.432;-2.598;2022-11-20T08:28:03;12.40;99.90
56256;DHT22;57229;51.432;-2.598;2022-11-20T08:30:30;12.40;99.90
56256;DHT22;57229;51.432;-2.598;2022-11-20T08:33:07;12.40;99.90
56256;DHT22;57229;51.432;-2.598;2022-11-20T08:35:37;12.40;99.90
56256;DHT22;57229;51.432;-2.598;2022-11-20T08:38:04;12.40;99.90
56256;DHT22;57229;51.432;-2.598;2022-11-20T08:40:31;12.40;99.90
56256;DHT22;57229;51.432;-2.598;2022-11-20T08:42:57;12.40;99.90
56256;DHT22;57229;51.432;-2.598;2022-11-20T08:45:23;12.40;99.90
56256;DHT22;57229;51.432;-2.598;2022-11-20T08:47:49;12.40;99.90
56256;DHT22;57229;51.432;-2.598;2022-11-20T08:50:16;12.40;99.90
56256;DHT22;57229;51.432;-2.598;2022-11-20T08:52:42;12.40;99.90
56256;DHT22;57229;51.432;-2.598;2022-11-20T08:55:08;12.40;99.90
56256;DHT22;57229;51.432;-2.598;2022-11-20T08:57:35;12.80;99.90
56256;DHT22;57229;51.432;-2.598;2022-11-20T09:00:02;12.40;99.90
56256;DHT22;57229;51.432;-2.598;2022-11-20T09:02:28;12.40;99.90
56256;DHT22;57229;51.432;-2.598;2022-11-20T09:04:54;12.40;99.90
56256;DHT22;57229;51.432;-2.598;2022-11-20T09:07:20;12.50;99.90
56256;DHT22;57229;51.432;-2.598;2022-11-20T09:09:45;12.50;99.90
56256;DHT22;57229;51.432;-2.598;2022-11-20T09:12:11;12.50;99.90
56256;DHT22;57229;51.432;-2.598;2022-11-20T09:14:37;12.50;99.90
56256;DHT22;57229;51.432;-2.598;2022-11-20T09:17:02;12.50;99.90
56256;DHT22;57229;51.432;-2.598;2022-11-20T09:19:33;12.50;99.90
56256;DHT22;57229;51.432;-2.598;2022-11-20T09:21:59;12.50;99.90
56256;DHT22;57229;51.432;-2.598;2022-11-20T09:24:26;12.60;99.90
56256;DHT22;57229;51.432;-2.598;2022-11-20T09:26:51;12.70;99.90
56256;DHT22;57229;51.432;-2.598;2022-11-20T09:29:17;12.60;99.90
56256;DHT22;57229;51.432;-2.598;2022-11-20T09:31:43;12.70;99.90
56256;DHT22;57229;51.432;-2.598;2022-11-20T09:34:09;12.70;99.90
56256;DHT22;57229;51.432;-2.598;2022-11-20T09:36:41;12.70;99.90
56256;DHT22;57229;51.432;-2.598;2022-11-20T09:39:06;12.70;99.90
56256;DHT22;57229;51.432;-2.598;2022-11-20T09:41:46;12.70;99.90
56256;DHT22;57229;51.432;-2.598;2022-11-20T09:47:13;12.80;99.90
56256;DHT22;57229;51.432;-2.598;2022-11-20T09:50:11;12.80;99.90
56256;DHT22;57229;51.432;-2.598;2022-11-20T09:53:13;12.90;99.90
56256;DHT22;57229;51.432;-2.598;2022-11-20T09:55:42;13.00;99.90
56256;DHT22;57229;51.432;-2.598;2022-11-20T09:58:27;13.00;99.90
56256;DHT22;57229;51.432;-2.598;2022-11-20T10:00:58;13.10;99.90
56256;DHT22;57229;51.432;-2.598;2022-11-20T10:06:13;13.30;99.90
56256;DHT22;57229;51.432;-2.598;2022-11-20T10:08:50;13.40;99.90
56256;DHT22;57229;51.432;-2.598;2022-11-20T10:14:05;13.60;99.90
56256;DHT22;57229;51.432;-2.598;2022-11-20T10:16:55;13.60;99.90
56256;DHT22;57229;51.432;-2.598;2022-11-20T10:24:56;13.60;99.90
56256;DHT22;57229;51.432;-2.598;2022-11-20T10:30:09;13.90;99.90
56256;DHT22;57229;51.432;-2.598;2022-11-20T10:32:41;14.10;99.90
56256;DHT22;57229;51.432;-2.598;2022-11-20T10:35:16;14.40;99.90
56256;DHT22;57229;51.432;-2.598;2022-11-20T10:37:47;14.50;99.90
56256;DHT22;57229;51.432;-2.598;2022-11-20T10:40:38;14.70;99.90
56256;DHT22;57229;51.432;-2.598;2022-11-20T10:43:27;14.90;99.90
56256;DHT22;57229;51.432;-2.598;2022-11-20T10:46:11;15.10;99.60
56256;DHT22;57229;51.432;-2.598;2022-11-20T10:48:41;15.30;99.20
56256;DHT22;57229;51.432;-2.598;2022-11-20T10:56:47;15.80;98.30
56256;DHT22;57229;51.432;-2.598;2022-11-20T11:02:29;16.10;97.70
56256;DHT22;57229;51.432;-2.598;2022-11-20T11:07:55;16.30;97.10
56256;DHT22;57229;51.432;-2.598;2022-11-20T11:10:39;16.40;96.80
56256;DHT22;57229;51.432;-2.598;2022-11-20T11:13:07;16.50;96.60
56256;DHT22;57229;51.432;-2.598;2022-11-20T11:15:40;16.60;98.30
56256;DHT22;57229;51.432;-2.598;2022-11-20T11:18:29;16.80;98.40
56256;DHT22;57229;51.432;-2.598;2022-11-20T11:20:57;16.80;97.20
56256;DHT22;57229;51.432;-2.598;2022-11-20T11:23:38;16.80;96.90
56256;DHT22;57229;51.432;-2.598;2022-11-20T11:26:17;16.90;97.20
56256;DHT22;57229;51.432;-2.598;2022-11-20T11:28:56;17.00;97.00
56256;DHT22;57229;51.432;-2.598;2022-11-20T11:31:33;17.00;97.10
56256;DHT22;57229;51.432;-2.598;2022-11-20T11:34:07;17.00;97.10
56256;DHT22;57229;51.432;-2.598;2022-11-20T11:36:34;17.00;97.10
56256;DHT22;57229;51.432;-2.598;2022-11-20T11:39:02;17.00;97.10
56256;DHT22;57229;51.432;-2.598;2022-11-20T11:41:32;16.90;97.30
56256;DHT22;57229;51.432;-2.598;2022-11-20T11:44:17;16.80;97.30
56256;DHT22;57229;51.432;-2.598;2022-11-20T11:47:04;16.50;97.60
56256;DHT22;57229;51.432;-2.598;2022-11-20T11:49:30;16.40;98.30
56256;DHT22;57229;51.432;-2.598;2022-11-20T11:51:58;16.40;98.30
56256;DHT22;57229;51.432;-2.598;2022-11-20T11:54:34;16.40;98.10
56256;DHT22;57229;51.432;-2.598;2022-11-20T11:57:09;16.30;98.40
56256;DHT22;57229;51.432;-2.598;2022-11-20T12:02:46;15.90;98.80
56256;DHT22;57229;51.432;-2.598;2022-11-20T12:06:06;15.70;99.10
56256;DHT22;57229;51.432;-2.598;2022-11-20T12:16:20;14.90;99.90
56256;DHT22;57229;51.432;-2.598;2022-11-20T12:18:55;14.80;99.90
56256;DHT22;57229;51.432;-2.598;2022-11-20T12:24:08;14.60;99.90
56256;DHT22;57229;51.432;-2.598;2022-11-20T12:30:12;14.40;99.90
56256;DHT22;57229;51.432;-2.598;2022-11-20T12:36:44;14.30;99.90
56256;DHT22;57229;51.432;-2.598;2022-11-20T12:39:34;14.30;99.90
56256;DHT22;57229;51.432;-2.598;2022-11-20T12:42:39;14.30;99.90
56256;DHT22;57229;51.432;-2.598;2022-11-20T12:48:45;14.60;99.90
56256;DHT22;57229;51.432;-2.598;2022-11-20T12:53:54;14.80;99.90
56256;DHT22;57229;51.432;-2.598;2022-11-20T13:02:25;15.10;99.90
56256;DHT22;57229;51.432;-2.598;2022-11-20T13:07:47;15.30;99.60
56256;DHT22;57229;51.432;-2.598;2022-11-20T13:10:32;15.30;99.40
56256;DHT22;57229;51.432;-2.598;2022-11-20T13:13:25;15.30;99.10
56256;DHT22;57229;51.432;-2.598;2022-11-20T13:16:23;15.20;99.10
56256;DHT22;57229;51.432;-2.598;2022-11-20T13:18:51;15.20;99.20
56256;DHT22;57229;51.432;-2.598;2022-11-20T13:21:39;15.20;99.20
56256;DHT22;57229;51.432;-2.598;2022-11-20T13:24:22;15.20;99.20
56256;DHT22;57229;51.432;-2.598;2022-11-20T13:29:35;15.00;99.40
56256;DHT22;57229;51.432;-2.598;2022-11-20T13:32:32;14.90;99.50
56256;DHT22;57229;51.432;-2.598;2022-11-20T13:35:00;14.80;99.70
56256;DHT22;57229;51.432;-2.598;2022-11-20T13:37:37;15.50;99.90
56256;DHT22;57229;51.432;-2.598;2022-11-20T13:42:56;14.60;99.90
56256;DHT22;57229;51.432;-2.598;2022-11-20T13:45:24;14.50;99.90
56256;DHT22;57229;51.432;-2.598;2022-11-20T13:47:51;14.40;99.90
56256;DHT22;57229;51.432;-2.598;2022-11-20T13:50:24;14.40;99.90
56256;DHT22;57229;51.432;-2.598;2022-11-20T13:56:07;14.20;99.90
56256;DHT22;57229;51.432;-2.598;2022-11-20T14:01:25;14.10;99.90
56256;DHT22;57229;51.432;-2.598;2022-11-20T14:04:07;14.10;99.90
56256;DHT22;57229;51.432;-2.598;2022-11-20T14:06:45;14.00;99.90
56256;DHT22;57229;51.432;-2.598;2022-11-20T14:09:32;14.00;99.90
56256;DHT22;57229;51.432;-2.598;2022-11-20T14:12:13;13.90;99.90
56256;DHT22;57229;51.432;-2.598;2022-11-20T14:14:50;13.90;99.90
56256;DHT22;57229;51.432;-2.598;2022-11-20T14:17:32;14.00;99.90
56256;DHT22;57229;51.432;-2.598;2022-11-20T14:20:11;14.10;99.90
56256;DHT22;57229;51.432;-2.598;2022-11-20T14:22:53;14.20;99.90
56256;DHT22;57229;51.432;-2.598;2022-11-20T14:25:43;14.50;99.90
56256;DHT22;57229;51.432;-2.598;2022-11-20T14:28:28;14.80;99.90
56256;DHT22;57229;51.432;-2.598;2022-11-20T14:30:57;15.00;99.90
56256;DHT22;57229;51.432;-2.598;2022-11-20T14:33:26;15.20;99.90
56256;DHT22;57229;51.432;-2.598;2022-11-20T14:35:54;15.40;99.90
56256;DHT22;57229;51.432;-2.598;2022-11-20T14:38:31;15.60;99.90
56256;DHT22;57229;51.432;-2.598;2022-11-20T14:41:18;15.80;99.90
56256;DHT22;57229;51.432;-2.598;2022-11-20T14:43:53;15.90;99.90
56256;DHT22;57229;51.432;-2.598;2022-11-20T14:49:46;15.70;99.90
56256;DHT22;57229;51.432;-2.598;2022-11-20T14:54:50;15.80;99.90
56256;DHT22;57229;51.432;-2.598;2022-11-20T14:57:34;15.70;99.90
56256;DHT22;57229;51.432;-2.598;2022-11-20T15:00:20;15.80;99.90
56256;DHT22;57229;51.432;-2.598;2022-11-20T15:02:52;15.90;99.90
56256;DHT22;57229;51.432;-2.598;2022-11-20T15:05:23;15.90;99.90
56256;DHT22;57229;51.432;-2.598;2022-11-20T15:08:12;15.50;99.90
56256;DHT22;57229;51.432;-2.598;2022-11-20T15:10:46;16.00;99.90
56256;DHT22;57229;51.432;-2.598;2022-11-20T15:13:38;16.20;99.90
56256;DHT22;57229;51.432;-2.598;2022-11-20T15:16:21;16.10;99.90
56256;DHT22;57229;51.432;-2.598;2022-11-20T15:18:52;16.10;99.90
56256;DHT22;57229;51.432;-2.598;2022-11-20T15:21:28;16.10;99.90
56256;DHT22;57229;51.432;-2.598;2022-11-20T15:27:09;16.00;99.90
56256;DHT22;57229;51.432;-2.598;2022-11-20T15:29:43;15.90;99.90
56256;DHT22;57229;51.432;-2.598;2022-11-20T15:32:09;15.90;99.90
56256;DHT22;57229;51.432;-2.598;2022-11-20T15:34:56;15.90;99.90
56256;DHT22;57229;51.432;-2.598;2022-11-20T15:37:42;15.90;99.90
56256;DHT22;57229;51.432;-2.598;2022-11-20T15:43:17;15.80;99.90
56256;DHT22;57229;51.432;-2.598;2022-11-20T15:45:57;15.70;99.90
56256;DHT22;57229;51.432;-2.598;2022-11-20T15:48:51;15.70;99.90
56256;DHT22;57229;51.432;-2.598;2022-11-20T15:51:28;15.70;99.90
56256;DHT22;57229;51.432;-2.598;2022-11-20T15:53:55;15.60;99.90
56256;DHT22;57229;51.432;-2.598;2022-11-20T15:56:22;15.60;99.90
56256;DHT22;57229;51.432;-2.598;2022-11-20T15:58:47;15.60;99.90
56256;DHT22;57229;51.432;-2.598;2022-11-20T16:01:16;15.70;99.90
56256;DHT22;57229;51.432;-2.598;2022-11-20T16:03:42;15.60;99.90
56256;DHT22;57229;51.432;-2.598;2022-11-20T16:06:08;15.60;99.90
56256;DHT22;57229;51.432;-2.598;2022-11-20T16:08:40;15.60;99.90
56256;DHT22;57229;51.432;-2.598;2022-11-20T16:11:06;15.50;99.90
56256;DHT22;57229;51.432;-2.598;2022-11-20T16:13:32;15.50;99.90
56256;DHT22;57229;51.432;-2.598;2022-11-20T16:16:31;15.50;99.90
56256;DHT22;57229;51.432;-2.598;2022-11-20T16:18:57;15.50;99.90
56256;DHT22;57229;51.432;-2.598;2022-11-20T16:21:27;15.40;99.90
56256;DHT22;57229;51.432;-2.598;2022-11-20T16:23:58;15.40;99.90
56256;DHT22;57229;51.432;-2.598;2022-11-20T16:26:30;15.40;99.90
56256;DHT22;57229;51.432;-2.598;2022-11-20T16:28:59;15.40;99.90
56256;DHT22;57229;51.432;-2.598;2022-11-20T16:31:35;15.30;99.90
56256;DHT22;57229;51.432;-2.598;2022-11-20T16:34:03;15.30;99.90
56256;DHT22;57229;51.432;-2.598;2022-11-20T16:36:30;15.20;99.90
56256;DHT22;57229;51.432;-2.598;2022-11-20T16:39:01;15.20;99.90
56256;DHT22;57229;51.432;-2.598;2022-11-20T16:41:30;15.20;99.90
56256;DHT22;57229;51.432;-2.598;2022-11-20T16:43:58;15.10;99.90
56256;DHT22;57229;51.432;-2.598;2022-11-20T16:46:26;15.10;99.90
56256;DHT22;57229;51.432;-2.598;2022-11-20T16:49:03;15.10;99.90
56256;DHT22;57229;51.432;-2.598;2022-11-20T16:51:34;15.00;99.90
56256;DHT22;57229;51.432;-2.598;2022-11-20T16:54:05;15.00;99.90
56256;DHT22;57229;51.432;-2.598;2022-11-20T16:56:32;14.90;99.90
56256;DHT22;57229;51.432;-2.598;2022-11-20T16:58:58;14.90;99.90
56256;DHT22;57229;51.432;-2.598;2022-11-20T17:01:26;14.90;99.90
56256;DHT22;57229;51.432;-2.598;2022-11-20T17:03:58;14.90;99.90
56256;DHT22;57229;51.432;-2.598;2022-11-20T17:06:33;14.80;99.90
56256;DHT22;57229;51.432;-2.598;2022-11-20T17:08:59;14.80;99.90
56256;DHT22;57229;51.432;-2.598;2022-11-20T17:11:26;14.80;99.90